createdAt,value
2018-07-27T00:00:15.415Z,63.14
2018-07-27T00:01:15.445Z,62.56
2018-07-27T00:02:15.456Z,62.85
2018-07-27T00:03:15.483Z,62.47
2018-07-27T00:04:15.519Z,62.82
2018-07-27T00:05:15.537Z,63.43
2018-07-27T00:06:15.562Z,63.40
2018-07-27T00:07:15.574Z,64.18
2018-07-27T00:08:15.612Z,63.60
2018-07-27T00:09:15.633Z,63.40
2018-07-27T00:10:15.660Z,63.24
2018-07-27T00:11:15.665Z,63.14
2018-07-27T00:12:15.689Z,63.02
2018-07-27T00:13:15.712Z,63.31
2018-07-27T00:14:15.732Z,63.69
2018-07-27T00:15:15.755Z,63.31
2018-07-27T00:16:15.785Z,64.08
2018-07-27T00:17:15.814Z,64.27
2018-07-27T00:18:15.827Z,63.79
2018-07-27T00:19:15.860Z,63.69
2018-07-27T00:20:15.880Z,64.34
2018-07-27T00:21:15.904Z,64.63
2018-07-27T00:22:15.932Z,64.37
2018-07-27T00:23:15.943Z,64.47
2018-07-27T00:24:15.986Z,63.50
2018-07-27T00:25:15.990Z,63.69
2018-07-27T00:26:16.005Z,63.89
2018-07-27T00:27:16.029Z,64.37
2018-07-27T00:28:16.061Z,63.89
2018-07-27T00:29:16.078Z,63.79
2018-07-27T00:30:16.107Z,63.69
2018-07-27T00:31:16.132Z,63.60
2018-07-27T00:32:16.146Z,63.60
2018-07-27T00:33:16.171Z,63.60
2018-07-27T00:34:16.196Z,63.50
2018-07-27T00:35:16.221Z,64.24
2018-07-27T00:36:16.234Z,63.98
2018-07-27T00:37:16.257Z,64.66
2018-07-27T00:38:16.279Z,64.47
2018-07-27T00:39:16.317Z,64.63
2018-07-27T00:40:16.329Z,64.34
2018-07-27T00:41:16.351Z,65.20
2018-07-27T00:42:16.369Z,64.43
2018-07-27T00:43:16.396Z,64.34
2018-07-27T00:44:16.418Z,64.43
2018-07-27T00:45:16.437Z,65.50
2018-07-27T00:46:16.467Z,65.56
2018-07-27T00:47:16.481Z,65.69
2018-07-27T00:48:16.510Z,66.33
2018-07-27T00:49:16.536Z,65.75
2018-07-27T00:50:16.555Z,65.95
2018-07-27T00:51:16.581Z,66.63
2018-07-27T00:52:16.613Z,66.05
2018-07-27T00:53:16.626Z,66.24
2018-07-27T00:54:16.642Z,66.43
2018-07-27T00:55:16.671Z,67.40
2018-07-27T00:56:16.702Z,66.91
2018-07-27T00:57:16.717Z,66.72
2018-07-27T00:58:16.760Z,66.33
2018-07-27T00:59:16.759Z,67.55
2018-07-27T01:00:16.779Z,67.30
2018-07-27T01:01:16.799Z,67.30
2018-07-27T01:02:16.823Z,67.40
2018-07-27T01:03:16.847Z,67.20
2018-07-27T01:04:16.876Z,67.65
2018-07-27T01:05:16.891Z,67.85
2018-07-27T01:06:16.919Z,68.23
2018-07-27T01:07:16.936Z,68.04
2018-07-27T01:08:16.965Z,67.85
2018-07-27T01:09:16.995Z,67.46
2018-07-27T01:10:17.001Z,68.04
2018-07-27T01:11:17.028Z,67.85
2018-07-27T01:12:17.050Z,67.27
2018-07-27T01:13:17.072Z,67.85
2018-07-27T01:14:17.095Z,67.65
2018-07-27T01:15:17.112Z,68.13
2018-07-27T01:16:17.140Z,68.68
2018-07-27T01:17:17.163Z,68.77
2018-07-27T01:18:17.195Z,69.16
2018-07-27T01:19:17.207Z,70.19
2018-07-27T01:20:17.226Z,71.60
2018-07-27T01:21:17.262Z,71.79
2018-07-27T01:22:17.288Z,71.79
2018-07-27T01:23:17.326Z,70.57
2018-07-27T01:24:17.317Z,69.84
2018-07-27T01:25:17.341Z,70.09
2018-07-27T01:26:17.372Z,70.03
2018-07-27T01:27:17.384Z,69.90
2018-07-27T01:28:17.408Z,69.90
2018-07-27T01:29:17.430Z,69.55
2018-07-27T01:30:17.451Z,69.55
2018-07-27T01:31:17.489Z,69.61
2018-07-27T01:32:17.508Z,70.19
2018-07-27T01:33:17.522Z,70.86
2018-07-27T01:34:17.547Z,71.54
2018-07-27T01:35:17.562Z,70.76
2018-07-27T01:36:17.582Z,70.57
2018-07-27T01:37:17.610Z,71.50
2018-07-27T01:38:17.626Z,71.89
2018-07-27T01:39:17.652Z,71.89
2018-07-27T01:40:17.677Z,71.83
2018-07-27T01:41:17.697Z,70.67
2018-07-27T01:42:17.738Z,71.64
2018-07-27T01:43:17.750Z,70.57
2018-07-27T01:44:17.781Z,70.86
2018-07-27T01:45:17.792Z,70.96
2018-07-27T01:46:17.814Z,70.86
2018-07-27T01:47:17.832Z,70.76
2018-07-27T01:48:17.854Z,70.00
2018-07-27T01:49:17.888Z,69.64
2018-07-27T01:50:17.917Z,69.55
2018-07-27T01:51:17.916Z,69.84
2018-07-27T01:52:17.949Z,69.42
2018-07-27T01:53:17.960Z,69.32
2018-07-27T01:54:17.994Z,70.73
2018-07-27T01:55:18.005Z,71.02
2018-07-27T01:56:18.041Z,70.73
2018-07-27T01:57:18.059Z,72.37
2018-07-27T01:58:18.081Z,73.14
2018-07-27T01:59:18.091Z,72.37
2018-07-27T02:00:18.117Z,73.01
2018-07-27T02:01:18.136Z,74.51
2018-07-27T02:02:18.165Z,74.26
2018-07-27T02:03:18.184Z,74.55
2018-07-27T02:04:18.215Z,74.41
2018-07-27T02:05:18.220Z,74.80
2018-07-27T02:06:18.246Z,75.19
2018-07-27T02:07:18.270Z,75.86
2018-07-27T02:08:18.296Z,76.53
2018-07-27T02:09:18.310Z,76.25
2018-07-27T02:10:18.333Z,75.67
2018-07-27T02:11:18.354Z,76.21
2018-07-27T02:12:18.380Z,76.21
2018-07-27T02:13:18.402Z,76.98
2018-07-27T02:14:18.434Z,76.98
2018-07-27T02:15:18.451Z,76.78
2018-07-27T02:16:18.462Z,78.03
2018-07-27T02:17:18.484Z,77.65
2018-07-27T02:18:18.503Z,76.98
2018-07-27T02:19:18.532Z,76.50
2018-07-27T02:20:18.566Z,76.53
2018-07-27T02:21:18.626Z,75.48
2018-07-27T02:22:18.603Z,75.13
2018-07-27T02:23:18.631Z,74.55
2018-07-27T02:24:18.647Z,73.49
2018-07-27T02:25:18.659Z,73.20
2018-07-27T02:26:18.676Z,73.20
2018-07-27T02:27:18.706Z,73.78
2018-07-27T02:28:18.727Z,73.88
2018-07-27T02:29:18.751Z,74.99
2018-07-27T02:30:18.798Z,75.96
2018-07-27T02:31:18.800Z,75.76
2018-07-27T02:32:18.814Z,75.38
2018-07-27T02:33:18.851Z,75.86
2018-07-27T02:34:18.858Z,75.67
2018-07-27T02:35:18.888Z,75.19
2018-07-27T02:36:18.906Z,74.90
2018-07-27T02:37:18.920Z,74.55
2018-07-27T02:38:18.946Z,74.26
2018-07-27T02:39:18.970Z,73.20
2018-07-27T02:40:18.990Z,72.85
2018-07-27T02:41:19.004Z,72.75
2018-07-27T02:42:19.058Z,72.56
2018-07-27T02:43:19.053Z,72.81
2018-07-27T02:44:19.069Z,72.72
2018-07-27T02:45:19.092Z,73.74
2018-07-27T02:46:19.112Z,74.03
2018-07-27T02:47:19.147Z,75.57
2018-07-27T02:48:19.161Z,75.44
2018-07-27T02:49:19.208Z,76.31
2018-07-27T02:50:19.218Z,77.08
2018-07-27T02:51:19.295Z,77.90
2018-07-27T02:52:19.241Z,77.90
2018-07-27T02:53:19.283Z,78.77
2018-07-27T02:54:19.305Z,79.15
2018-07-27T02:55:19.362Z,77.90
2018-07-27T02:56:19.339Z,78.00
2018-07-27T02:57:19.354Z,77.42
2018-07-27T02:58:19.382Z,76.98
2018-07-27T02:59:19.401Z,76.26
2018-07-27T03:00:19.413Z,76.01
2018-07-27T03:01:19.447Z,76.21
2018-07-27T03:02:19.467Z,76.01
2018-07-27T03:03:19.479Z,76.25
2018-07-27T03:04:19.497Z,75.28
2018-07-27T03:05:19.538Z,75.28
2018-07-27T03:06:19.568Z,74.51
2018-07-27T03:07:19.584Z,74.16
2018-07-27T03:08:19.592Z,73.78
2018-07-27T03:09:19.606Z,73.30
2018-07-27T03:10:19.642Z,73.39
2018-07-27T03:11:19.654Z,73.68
2018-07-27T03:12:19.673Z,73.30
2018-07-27T03:13:19.699Z,73.30
2018-07-27T03:14:19.722Z,74.61
2018-07-27T03:15:19.740Z,75.57
2018-07-27T03:16:19.761Z,74.90
2018-07-27T03:17:19.780Z,75.63
2018-07-27T03:18:19.806Z,76.65
2018-07-27T03:19:19.830Z,76.56
2018-07-27T03:20:19.845Z,77.61
2018-07-27T03:21:19.882Z,77.81
2018-07-27T03:22:19.913Z,78.58
2018-07-27T03:23:19.919Z,79.88
2018-07-27T03:24:19.934Z,79.25
2018-07-27T03:25:19.953Z,77.81
2018-07-27T03:26:19.978Z,77.36
2018-07-27T03:27:20.006Z,76.69
2018-07-27T03:28:20.019Z,75.82
2018-07-27T03:29:20.037Z,75.73
2018-07-27T03:30:20.061Z,75.38
2018-07-27T03:31:20.087Z,74.80
2018-07-27T03:32:20.102Z,75.38
2018-07-27T03:33:20.146Z,74.90
2018-07-27T03:34:20.152Z,74.80
2018-07-27T03:35:20.165Z,75.48
2018-07-27T03:36:20.190Z,74.22
2018-07-27T03:37:20.216Z,74.41
2018-07-27T03:38:20.284Z,75.73
2018-07-27T03:39:20.253Z,75.73
2018-07-27T03:40:20.274Z,75.82
2018-07-27T03:41:20.299Z,76.84
2018-07-27T03:42:20.316Z,77.81
2018-07-27T03:43:20.356Z,78.53
2018-07-27T03:44:20.365Z,78.67
2018-07-27T03:45:20.392Z,77.90
2018-07-27T03:46:20.408Z,78.38
2018-07-27T03:47:20.453Z,78.92
2018-07-27T03:48:20.445Z,79.79
2018-07-27T03:49:20.468Z,79.69
2018-07-27T03:50:20.516Z,79.30
2018-07-27T03:51:20.513Z,79.79
2018-07-27T03:52:20.536Z,79.79
2018-07-27T03:53:20.548Z,78.86
2018-07-27T03:54:20.572Z,79.50
2018-07-27T03:55:20.593Z,79.79
2018-07-27T03:56:20.617Z,79.79
2018-07-27T03:57:20.689Z,80.07
2018-07-27T03:58:20.664Z,80.36
2018-07-27T03:59:20.685Z,80.55
2018-07-27T04:00:20.720Z,80.84
2018-07-27T04:01:20.733Z,80.36
2018-07-27T04:02:20.826Z,80.65
2018-07-27T04:03:20.778Z,80.17
2018-07-27T04:04:20.834Z,79.79
2018-07-27T04:05:20.807Z,78.86
2018-07-27T04:06:20.848Z,77.90
2018-07-27T04:07:20.866Z,78.58
2018-07-27T04:08:20.874Z,77.81
2018-07-27T04:09:20.899Z,77.81
2018-07-27T04:10:20.916Z,78.09
2018-07-27T04:11:20.931Z,78.77
2018-07-27T04:12:20.965Z,77.61
2018-07-27T04:13:20.990Z,77.81
2018-07-27T04:14:21.014Z,77.65
2018-07-27T04:15:21.031Z,76.59
2018-07-27T04:16:21.051Z,75.92
2018-07-27T04:17:21.070Z,76.40
2018-07-27T04:18:21.091Z,75.86
2018-07-27T04:19:21.114Z,76.21
2018-07-27T04:20:21.129Z,76.06
2018-07-27T04:21:21.155Z,75.48
2018-07-27T04:22:21.221Z,74.71
2018-07-27T04:23:21.193Z,75.28
2018-07-27T04:24:21.216Z,75.38
2018-07-27T04:25:21.243Z,74.51
2018-07-27T04:26:21.306Z,74.80
2018-07-27T04:27:21.279Z,75.28
2018-07-27T04:28:21.302Z,75.73
2018-07-27T04:29:21.323Z,76.98
2018-07-27T04:30:21.350Z,77.65
2018-07-27T04:31:21.386Z,78.09
2018-07-27T04:32:21.391Z,78.38
2018-07-27T04:33:21.430Z,78.48
2018-07-27T04:34:21.429Z,78.28
2018-07-27T04:35:21.456Z,79.15
2018-07-27T04:36:21.474Z,79.79
2018-07-27T04:37:21.514Z,80.02
2018-07-27T04:38:21.520Z,80.65
2018-07-27T04:39:21.543Z,80.02
2018-07-27T04:40:21.570Z,80.02
2018-07-27T04:41:21.589Z,79.92
2018-07-27T04:42:21.617Z,79.19
2018-07-27T04:43:21.628Z,79.25
2018-07-27T04:44:21.643Z,79.82
2018-07-27T04:45:21.672Z,79.10
2018-07-27T04:46:21.686Z,78.96
2018-07-27T04:47:21.712Z,79.63
2018-07-27T04:48:21.734Z,80.02
2018-07-27T04:49:21.784Z,79.00
2018-07-27T04:50:21.776Z,78.17
2018-07-27T04:51:21.800Z,78.23
2018-07-27T04:52:21.837Z,78.42
2018-07-27T04:53:21.844Z,79.38
2018-07-27T04:54:21.898Z,79.77
2018-07-27T04:55:21.883Z,79.86
2018-07-27T04:56:21.921Z,79.77
2018-07-27T04:57:21.933Z,79.19
2018-07-27T04:58:21.951Z,79.48
2018-07-27T04:59:21.974Z,79.67
2018-07-27T05:00:22.000Z,79.71
2018-07-27T05:01:22.019Z,78.98
2018-07-27T05:02:22.042Z,75.68
2018-07-27T05:03:22.056Z,72.77
2018-07-27T05:04:22.083Z,70.14
2018-07-27T05:05:22.111Z,68.52
2018-07-27T05:06:22.126Z,66.56
2018-07-27T05:07:22.151Z,63.43
2018-07-27T05:08:22.181Z,62.49
2018-07-27T05:09:22.200Z,60.49
2018-07-27T05:10:22.280Z,59.91
2018-07-27T05:11:22.249Z,59.64
2018-07-27T05:12:22.275Z,57.93
2018-07-27T05:13:22.304Z,56.79
2018-07-27T05:14:22.320Z,56.26
2018-07-27T05:15:22.345Z,54.52
2018-07-27T05:16:22.372Z,53.93
2018-07-27T05:17:22.410Z,53.47
2018-07-27T05:18:22.471Z,52.33
2018-07-27T05:19:22.449Z,52.43
2018-07-27T05:20:22.478Z,51.87
2018-07-27T05:21:22.512Z,50.63
2018-07-27T05:22:22.534Z,49.95
2018-07-27T05:23:22.566Z,49.66
2018-07-27T05:24:22.588Z,49.39
2018-07-27T05:25:22.621Z,48.54
2018-07-27T05:26:22.643Z,47.07
2018-07-27T05:27:22.673Z,47.53
2018-07-27T05:28:22.698Z,48.61
2018-07-27T05:29:22.729Z,48.32
2018-07-27T05:30:22.757Z,48.32
2018-07-27T05:31:22.800Z,47.44
2018-07-27T05:32:22.812Z,47.92
2018-07-27T05:33:22.844Z,47.66
2018-07-27T05:34:22.874Z,46.78
2018-07-27T05:35:22.920Z,47.27
2018-07-27T05:36:22.927Z,47.39
2018-07-27T05:37:22.966Z,46.61
2018-07-27T05:38:22.990Z,46.80
2018-07-27T05:39:23.020Z,45.80
2018-07-27T05:40:23.064Z,45.19
2018-07-27T05:41:23.080Z,45.02
2018-07-27T05:42:23.118Z,44.16
2018-07-27T05:43:23.138Z,43.91
2018-07-27T05:44:23.171Z,41.99
2018-07-27T05:45:23.195Z,41.02
2018-07-27T05:46:23.223Z,41.50
2018-07-27T05:47:23.254Z,41.78
2018-07-27T05:48:23.294Z,41.70
2018-07-27T05:49:23.341Z,40.86
2018-07-27T05:50:23.345Z,40.35
2018-07-27T05:51:23.377Z,41.11
2018-07-27T05:52:23.425Z,42.35
2018-07-27T05:53:23.441Z,42.25
2018-07-27T05:54:23.469Z,41.50
2018-07-27T05:55:23.509Z,42.09
2018-07-27T05:56:23.546Z,41.88
2018-07-27T05:57:23.569Z,41.60
2018-07-27T05:58:23.611Z,42.48
2018-07-27T05:59:23.664Z,41.58
2018-07-27T06:00:23.657Z,41.80
2018-07-27T06:01:23.689Z,40.88
2018-07-27T06:02:23.719Z,39.92
2018-07-27T06:03:23.752Z,38.56
2018-07-27T06:04:23.780Z,39.15
2018-07-27T06:05:23.811Z,38.48
2018-07-27T06:06:23.855Z,38.01
2018-07-27T06:07:23.880Z,39.43
2018-07-27T06:08:23.937Z,40.19
2018-07-27T06:09:23.944Z,39.64
2018-07-27T06:10:23.970Z,39.72
2018-07-27T06:11:24.009Z,40.21
2018-07-27T06:12:24.031Z,40.39
2018-07-27T06:13:24.069Z,42.19
2018-07-27T06:14:24.121Z,42.78
2018-07-27T06:15:24.129Z,41.99
2018-07-27T06:16:24.156Z,41.62
2018-07-27T06:17:24.192Z,41.33
2018-07-27T06:18:24.231Z,40.09
2018-07-27T06:19:24.252Z,38.60
2018-07-27T06:20:24.285Z,36.97
2018-07-27T06:21:24.319Z,38.56
2018-07-27T06:22:24.361Z,38.58
2018-07-27T06:23:24.381Z,37.15
2018-07-27T06:24:24.468Z,36.74
2018-07-27T06:25:24.460Z,37.70
2018-07-27T06:26:24.479Z,37.38
2018-07-27T06:27:24.511Z,34.97
2018-07-27T06:28:24.544Z,36.49
2018-07-27T06:29:24.581Z,37.76
2018-07-27T06:30:24.605Z,38.40
2018-07-27T06:31:24.648Z,39.62
2018-07-27T06:32:24.668Z,40.31
2018-07-27T06:33:24.711Z,38.70
2018-07-27T06:34:24.739Z,36.40
2018-07-27T06:35:24.786Z,35.28
2018-07-27T06:36:24.800Z,33.65
2018-07-27T06:37:24.836Z,32.60
2018-07-27T06:38:24.863Z,31.35
2018-07-27T06:39:24.896Z,30.39
2018-07-27T06:40:24.930Z,30.39
2018-07-27T06:41:24.986Z,29.64
2018-07-27T06:42:24.995Z,28.94
2018-07-27T06:43:25.050Z,28.49
2018-07-27T06:44:25.062Z,28.27
2018-07-27T06:45:25.101Z,29.90
2018-07-27T06:46:25.123Z,29.65
2018-07-27T06:47:25.163Z,28.20
2018-07-27T06:48:25.193Z,28.45
2018-07-27T06:49:25.227Z,28.75
2018-07-27T06:50:25.267Z,27.91
2018-07-27T06:51:25.298Z,27.48
2018-07-27T06:52:25.336Z,27.21
2018-07-27T06:53:25.356Z,27.48
2018-07-27T06:54:25.386Z,27.51
2018-07-27T06:55:25.425Z,27.58
2018-07-27T06:56:25.458Z,28.72
2018-07-27T06:57:25.496Z,29.90
2018-07-27T06:58:25.519Z,29.90
2018-07-27T06:59:25.553Z,30.18
2018-07-27T07:00:25.586Z,31.41
2018-07-27T07:01:25.618Z,33.33
2018-07-27T07:02:25.651Z,34.59
2018-07-27T07:03:25.722Z,35.17
2018-07-27T07:04:25.713Z,34.22
2018-07-27T07:05:25.750Z,32.90
2018-07-27T07:06:25.783Z,31.65
2018-07-27T07:07:25.824Z,32.60
2018-07-27T07:08:25.850Z,32.78
2018-07-27T07:09:25.884Z,32.59
2018-07-27T07:10:25.918Z,30.30
2018-07-27T07:11:25.958Z,28.79
2018-07-27T07:12:25.984Z,30.08
2018-07-27T07:13:26.019Z,27.97
2018-07-27T07:14:26.074Z,28.61
2018-07-27T07:15:26.088Z,29.65
2018-07-27T07:16:26.126Z,29.79
2018-07-27T07:17:26.175Z,28.73
2018-07-27T07:18:26.183Z,27.86
2018-07-27T07:19:26.219Z,26.54
2018-07-27T07:20:26.247Z,25.72
2018-07-27T07:21:26.282Z,26.85
2018-07-27T07:22:26.318Z,27.48
2018-07-27T07:23:26.351Z,26.16
2018-07-27T07:24:26.384Z,24.66
2018-07-27T07:25:26.577Z,26.40
2018-07-27T07:26:26.452Z,26.90
2018-07-27T07:27:26.480Z,26.32
2018-07-27T07:28:26.515Z,26.42
2018-07-27T07:29:26.563Z,25.97
2018-07-27T07:30:26.593Z,24.87
2018-07-27T07:31:26.623Z,26.02
2018-07-27T07:32:26.651Z,26.70
2018-07-27T07:33:26.686Z,26.15
2018-07-27T07:34:26.728Z,23.83
2018-07-27T07:35:26.762Z,23.45
2018-07-27T07:36:26.791Z,24.66
2018-07-27T07:37:26.816Z,25.90
2018-07-27T07:38:26.856Z,26.65
2018-07-27T07:39:26.887Z,26.09
2018-07-27T07:40:26.934Z,25.34
2018-07-27T07:41:26.955Z,24.01
2018-07-27T07:42:26.983Z,25.67
2018-07-27T07:43:27.018Z,25.50
2018-07-27T07:44:27.060Z,24.98
2018-07-27T07:45:27.123Z,24.99
2018-07-27T07:46:27.118Z,25.79
2018-07-27T07:47:27.152Z,25.39
2018-07-27T07:48:27.189Z,25.79
2018-07-27T07:49:27.250Z,24.64
2018-07-27T07:50:27.255Z,23.75
2018-07-27T07:51:27.285Z,23.97
2018-07-27T07:52:27.328Z,23.11
2018-07-27T07:53:27.350Z,22.99
2018-07-27T07:54:27.392Z,22.62
2018-07-27T07:55:27.421Z,21.91
2018-07-27T07:56:27.462Z,23.67
2018-07-27T07:57:27.492Z,24.21
2018-07-27T07:58:27.521Z,24.71
2018-07-27T07:59:27.557Z,24.68
2018-07-27T08:00:27.586Z,24.31
2018-07-27T08:01:27.632Z,24.38
2018-07-27T08:02:27.658Z,25.26
2018-07-27T08:03:27.686Z,23.67
2018-07-27T08:04:27.722Z,22.23
2018-07-27T08:05:27.770Z,21.06
2018-07-27T08:06:27.789Z,20.90
2018-07-27T08:07:27.823Z,21.52
2018-07-27T08:08:27.867Z,22.48
2018-07-27T08:09:27.892Z,23.44
2018-07-27T08:10:27.927Z,23.64
2018-07-27T08:11:27.987Z,22.71
2018-07-27T08:12:27.999Z,21.56
2018-07-27T08:13:28.026Z,20.65
2018-07-27T08:14:28.063Z,21.61
2018-07-27T08:15:28.090Z,22.78
2018-07-27T08:16:28.122Z,22.22
2018-07-27T08:17:28.173Z,21.59
2018-07-27T08:18:28.188Z,22.44
2018-07-27T08:19:28.225Z,23.14
2018-07-27T08:20:28.252Z,21.81
2018-07-27T08:21:28.294Z,20.05
2018-07-27T08:22:28.342Z,20.05
2018-07-27T08:23:28.354Z,20.75
2018-07-27T08:24:28.386Z,19.93
2018-07-27T08:25:28.416Z,19.96
2018-07-27T08:26:28.455Z,22.38
2018-07-27T08:27:28.478Z,23.04
2018-07-27T08:28:28.514Z,23.32
2018-07-27T08:29:28.542Z,23.50
2018-07-27T08:30:28.580Z,23.59
2018-07-27T08:31:28.619Z,24.67
2018-07-27T08:32:28.652Z,24.66
2018-07-27T08:33:28.671Z,24.21
2018-07-27T08:34:28.701Z,23.61
2018-07-27T08:35:28.740Z,24.79
2018-07-27T08:36:28.762Z,25.62
2018-07-27T08:37:28.805Z,26.12
2018-07-27T08:38:28.822Z,26.81
2018-07-27T08:39:28.866Z,26.38
2018-07-27T08:40:28.899Z,27.91
2018-07-27T08:41:28.919Z,27.75
2018-07-27T08:42:28.953Z,26.89
2018-07-27T08:43:28.974Z,27.35
2018-07-27T08:44:29.012Z,27.38
2018-07-27T08:45:29.038Z,26.67
2018-07-27T08:46:29.075Z,28.00
2018-07-27T08:47:29.096Z,29.75
2018-07-27T08:48:29.127Z,28.59
2018-07-27T08:49:29.173Z,27.34
2018-07-27T08:50:29.191Z,28.56
2018-07-27T08:51:29.209Z,29.55
2018-07-27T08:52:29.248Z,29.46
2018-07-27T08:53:29.273Z,29.74
2018-07-27T08:54:29.301Z,29.65
2018-07-27T08:55:29.333Z,28.56
2018-07-27T08:56:29.355Z,29.82
2018-07-27T08:57:29.391Z,29.25
2018-07-27T08:58:29.410Z,28.58
2018-07-27T08:59:29.443Z,28.58
2018-07-27T09:00:29.471Z,28.40
2018-07-27T09:01:29.500Z,28.30
2018-07-27T09:02:29.545Z,28.77
2018-07-27T09:03:29.553Z,29.65
2018-07-27T09:04:29.584Z,29.71
2018-07-27T09:05:29.608Z,30.88
2018-07-27T09:06:29.644Z,30.51
2018-07-27T09:07:29.658Z,31.09
2018-07-27T09:08:29.685Z,30.97
2018-07-27T09:09:29.716Z,31.74
2018-07-27T09:10:29.751Z,31.66
2018-07-27T09:11:29.768Z,31.64
2018-07-27T09:12:29.816Z,31.45
2018-07-27T09:13:29.830Z,31.28
2018-07-27T09:14:29.861Z,30.88
2018-07-27T09:15:29.881Z,31.09
2018-07-27T09:16:29.905Z,31.07
2018-07-27T09:17:29.951Z,29.89
2018-07-27T09:18:29.971Z,30.19
2018-07-27T09:19:29.994Z,29.79
2018-07-27T09:20:30.024Z,31.13
2018-07-27T09:21:30.054Z,31.15
2018-07-27T09:22:30.076Z,31.36
2018-07-27T09:23:30.103Z,30.55
2018-07-27T09:24:30.307Z,31.23
2018-07-27T09:25:30.167Z,31.25
2018-07-27T09:26:30.180Z,30.65
2018-07-27T09:27:30.205Z,30.74
2018-07-27T09:28:30.243Z,30.84
2018-07-27T09:29:30.266Z,30.84
2018-07-27T09:30:30.283Z,30.74
2018-07-27T09:31:30.318Z,30.76
2018-07-27T09:32:30.357Z,30.56
2018-07-27T09:33:30.367Z,30.94
2018-07-27T09:34:30.389Z,30.77
2018-07-27T09:35:30.496Z,30.49
2018-07-27T09:36:30.452Z,31.05
2018-07-27T09:37:30.472Z,30.46
2018-07-27T09:38:30.511Z,30.28
2018-07-27T09:39:30.527Z,30.95
2018-07-27T09:40:30.632Z,31.16
2018-07-27T09:41:30.592Z,30.87
2018-07-27T09:42:30.610Z,31.33
2018-07-27T09:43:30.640Z,30.45
2018-07-27T09:44:30.664Z,30.17
2018-07-27T09:45:30.685Z,29.86
2018-07-27T09:46:30.724Z,30.05
2018-07-27T09:47:30.755Z,29.86
2018-07-27T09:48:30.774Z,29.39
2018-07-27T09:49:30.810Z,28.63
2018-07-27T09:50:30.828Z,29.21
2018-07-27T09:51:30.869Z,29.99
2018-07-27T09:52:30.881Z,29.59
2018-07-27T09:53:30.907Z,29.41
2018-07-27T09:54:30.928Z,28.63
2018-07-27T09:55:30.959Z,29.41
2018-07-27T09:56:30.986Z,29.69
2018-07-27T09:57:31.053Z,29.21
2018-07-27T09:58:31.036Z,28.74
2018-07-27T09:59:31.063Z,28.08
2018-07-27T10:00:31.095Z,28.28
2018-07-27T10:01:31.120Z,28.17
2018-07-27T10:02:31.151Z,28.45
2018-07-27T10:03:31.169Z,29.59
2018-07-27T10:04:31.208Z,30.07
2018-07-27T10:05:31.223Z,29.99
2018-07-27T10:06:31.267Z,29.59
2018-07-27T10:07:31.317Z,28.44
2018-07-27T10:08:31.341Z,28.64
2018-07-27T10:09:31.332Z,28.61
2018-07-27T10:10:31.360Z,28.92
2018-07-27T10:11:31.390Z,28.23
2018-07-27T10:12:31.420Z,27.92
2018-07-27T10:13:31.447Z,29.61
2018-07-27T10:14:31.466Z,29.89
2018-07-27T10:15:31.496Z,30.02
2018-07-27T10:16:31.527Z,29.24
2018-07-27T10:17:31.550Z,29.23
2018-07-27T10:18:31.650Z,29.90
2018-07-27T10:19:31.600Z,30.00
2018-07-27T10:20:31.634Z,29.33
2018-07-27T10:21:31.652Z,29.71
2018-07-27T10:22:31.681Z,29.71
2018-07-27T10:23:31.722Z,28.74
2018-07-27T10:24:31.738Z,29.03
2018-07-27T10:25:31.766Z,30.00
2018-07-27T10:26:31.795Z,29.77
2018-07-27T10:27:31.815Z,31.43
2018-07-27T10:28:31.855Z,30.94
2018-07-27T10:29:31.880Z,30.45
2018-07-27T10:30:31.901Z,30.74
2018-07-27T10:31:31.928Z,29.99
2018-07-27T10:32:31.965Z,29.31
2018-07-27T10:33:31.981Z,29.43
2018-07-27T10:34:32.005Z,28.83
2018-07-27T10:35:32.030Z,27.86
2018-07-27T10:36:32.056Z,27.94
2018-07-27T10:37:32.088Z,29.31
2018-07-27T10:38:32.141Z,29.51
2018-07-27T10:39:32.142Z,29.87
2018-07-27T10:40:32.167Z,29.86
2018-07-27T10:41:32.202Z,29.49
2018-07-27T10:42:32.226Z,27.62
2018-07-27T10:43:32.255Z,27.62
2018-07-27T10:44:32.280Z,27.25
2018-07-27T10:45:32.320Z,26.39
2018-07-27T10:46:32.330Z,25.60
2018-07-27T10:47:32.354Z,26.07
2018-07-27T10:48:32.388Z,26.65
2018-07-27T10:49:32.410Z,26.48
2018-07-27T10:50:32.440Z,26.46
2018-07-27T10:51:32.461Z,27.51
2018-07-27T10:52:32.490Z,27.61
2018-07-27T10:53:32.516Z,28.09
2018-07-27T10:54:32.540Z,28.58
2018-07-27T10:55:32.579Z,28.69
2018-07-27T10:56:32.643Z,28.40
2018-07-27T10:57:32.628Z,27.74
2018-07-27T10:58:32.649Z,28.13
2018-07-27T10:59:32.676Z,27.72
2018-07-27T11:00:32.717Z,28.50
2018-07-27T11:01:32.735Z,27.14
2018-07-27T11:02:32.852Z,26.46
2018-07-27T11:03:32.790Z,25.85
2018-07-27T11:04:32.820Z,26.25
2018-07-27T11:05:32.851Z,26.92
2018-07-27T11:06:32.870Z,27.71
2018-07-27T11:07:32.893Z,27.12
2018-07-27T11:08:32.921Z,26.82
2018-07-27T11:09:32.963Z,26.74
2018-07-27T11:10:32.987Z,25.66
2018-07-27T11:11:33.019Z,24.86
2018-07-27T11:12:33.028Z,25.76
2018-07-27T11:13:33.055Z,24.79
2018-07-27T11:14:33.088Z,25.68
2018-07-27T11:15:33.106Z,24.40
2018-07-27T11:16:33.135Z,24.40
2018-07-27T11:17:33.272Z,24.79
2018-07-27T11:18:33.188Z,24.90
2018-07-27T11:19:33.216Z,25.67
2018-07-27T11:20:33.266Z,26.07
2018-07-27T11:21:33.271Z,25.85
2018-07-27T11:22:33.298Z,25.44
2018-07-27T11:23:33.327Z,25.37
2018-07-27T11:24:33.350Z,24.87
2018-07-27T11:25:33.451Z,25.66
2018-07-27T11:26:33.413Z,24.70
2018-07-27T11:27:33.435Z,24.71
2018-07-27T11:28:33.463Z,24.32
2018-07-27T11:29:33.523Z,24.69
2018-07-27T11:30:33.516Z,24.30
2018-07-27T11:31:33.542Z,24.41
2018-07-27T11:32:33.566Z,24.49
2018-07-27T11:33:33.604Z,24.30
2018-07-27T11:34:33.619Z,23.80
2018-07-27T11:35:33.651Z,23.82
2018-07-27T11:36:33.675Z,24.29
2018-07-27T11:37:33.702Z,24.59
2018-07-27T11:38:33.727Z,24.71
2018-07-27T11:39:33.757Z,23.54
2018-07-27T11:40:33.785Z,23.74
2018-07-27T11:41:33.825Z,23.75
2018-07-27T11:42:33.881Z,23.95
2018-07-27T11:43:33.867Z,23.26
2018-07-27T11:44:33.891Z,23.75
2018-07-27T11:45:33.922Z,24.54
2018-07-27T11:46:33.944Z,24.05
2018-07-27T11:47:33.976Z,24.23
2018-07-27T11:48:33.997Z,24.54
2018-07-27T11:49:34.076Z,24.71
2018-07-27T11:50:34.052Z,25.10
2018-07-27T11:51:34.081Z,25.52
2018-07-27T11:52:34.115Z,25.90
2018-07-27T11:53:34.141Z,25.32
2018-07-27T11:54:34.171Z,26.19
2018-07-27T11:55:34.194Z,26.20
2018-07-27T11:56:34.214Z,25.73
2018-07-27T11:57:34.256Z,24.97
2018-07-27T11:58:34.290Z,24.38
2018-07-27T11:59:34.304Z,24.35
2018-07-27T12:00:34.339Z,25.72
2018-07-27T12:01:34.367Z,26.10
2018-07-27T12:02:34.385Z,27.17
2018-07-27T12:03:34.417Z,26.41
2018-07-27T12:04:34.437Z,25.65
2018-07-27T12:05:34.459Z,24.55
2018-07-27T12:06:34.493Z,24.85
2018-07-27T12:07:34.523Z,24.86
2018-07-27T12:08:34.545Z,24.48
2018-07-27T12:09:34.576Z,23.48
2018-07-27T12:10:34.594Z,24.93
2018-07-27T12:11:34.625Z,24.95
2018-07-27T12:12:34.656Z,24.74
2018-07-27T12:13:34.681Z,25.81
2018-07-27T12:14:34.947Z,25.22
2018-07-27T12:15:34.736Z,25.81
2018-07-27T12:16:34.767Z,24.35
2018-07-27T12:17:34.806Z,24.46
2018-07-27T12:18:34.822Z,24.28
2018-07-27T12:19:34.846Z,23.80
2018-07-27T12:20:34.998Z,24.19
2018-07-27T12:21:35.102Z,23.91
2018-07-27T12:22:34.930Z,23.33
2018-07-27T12:23:34.973Z,23.50
2018-07-27T12:24:34.988Z,24.26
2018-07-27T12:25:35.018Z,24.55
2018-07-27T12:26:35.044Z,25.34
2018-07-27T12:27:35.071Z,25.63
2018-07-27T12:28:35.105Z,24.64
2018-07-27T12:29:35.137Z,24.35
2018-07-27T12:30:35.156Z,24.55
2018-07-27T12:31:35.190Z,24.65
2018-07-27T12:32:35.253Z,24.08
2018-07-27T12:33:35.245Z,23.00
2018-07-27T12:34:35.269Z,23.21
2018-07-27T12:35:35.297Z,23.13
2018-07-27T12:36:35.332Z,23.69
2018-07-27T12:37:35.359Z,23.49
2018-07-27T12:38:35.385Z,23.39
2018-07-27T12:39:35.417Z,23.90
2018-07-27T12:40:35.446Z,23.41
2018-07-27T12:41:35.467Z,23.81
2018-07-27T12:42:35.527Z,23.33
2018-07-27T12:43:35.533Z,23.03
2018-07-27T12:44:35.548Z,23.41
2018-07-27T12:45:35.595Z,23.49
2018-07-27T12:46:35.608Z,23.57
2018-07-27T12:47:35.638Z,24.45
2018-07-27T12:48:35.666Z,23.60
2018-07-27T12:49:35.708Z,24.19
2018-07-27T12:50:35.728Z,23.98
2018-07-27T12:51:35.747Z,24.34
2018-07-27T12:52:35.788Z,25.40